sensor_id;sensor_type;location;lat;lon;timestamp;pressure;altitude;pressure_sealevel;temperature;humidity
23164;BME280;31429;42.674;23.350;2023-04-10T00:00:54;94907.22;;;8.64;100.00
23164;BME280;31429;42.674;23.350;2023-04-10T00:01:57;94898.88;;;8.59;100.00
23164;BME280;31429;42.674;23.350;2023-04-10T00:02:57;94904.34;;;8.77;100.00
23164;BME280;31429;42.674;23.350;2023-04-10T00:03:59;94903.88;;;9.19;100.00
23164;BME280;31429;42.674;23.350;2023-04-10T00:04:59;94906.31;;;8.96;100.00
23164;BME280;31429;42.674;23.350;2023-04-10T00:06:00;94895.13;;;9.28;100.00
23164;BME280;31429;42.674;23.350;2023-04-10T00:07:01;94900.78;;;9.38;100.00
23164;BME280;31429;42.674;23.350;2023-04-10T00:08:01;94906.34;;;8.95;100.00
23164;BME280;31429;42.674;23.350;2023-04-10T00:09:02;94901.22;;;8.96;100.00
23164;BME280;31429;42.674;23.350;2023-04-10T00:10:03;94900.81;;;9.08;100.00
23164;BME280;31429;42.674;23.350;2023-04-10T00:11:04;94896.38;;;9.15;100.00
23164;BME280;31429;42.674;23.350;2023-04-10T00:12:06;94898.00;;;8.90;100.00
23164;BME280;31429;42.674;23.350;2023-04-10T00:13:07;94899.53;;;8.66;100.00
23164;BME280;31429;42.674;23.350;2023-04-10T00:14:08;94899.22;;;8.47;100.00
23164;BME280;31429;42.674;23.350;2023-04-10T00:15:09;94895.59;;;8.54;100.00
23164;BME280;31429;42.674;23.350;2023-04-10T00:16:10;94898.78;;;8.32;100.00
23164;BME280;31429;42.674;23.350;2023-04-10T00:17:11;94897.59;;;8.45;100.00
23164;BME280;31429;42.674;23.350;2023-04-10T00:18:11;94894.66;;;8.88;100.00
23164;BME280;31429;42.674;23.350;2023-04-10T00:19:12;94897.72;;;8.99;100.00
23164;BME280;31429;42.674;23.350;2023-04-10T00:20:13;94902.69;;;8.74;100.00
23164;BME280;31429;42.674;23.350;2023-04-10T00:21:13;94899.31;;;8.74;100.00
23164;BME280;31429;42.674;23.350;2023-04-10T00:22:14;94895.84;;;8.76;100.00
23164;BME280;31429;42.674;23.350;2023-04-10T00:23:15;94894.00;;;9.10;100.00
23164;BME280;31429;42.674;23.350;2023-04-10T00:24:15;94893.81;;;8.87;100.00
23164;BME280;31429;42.674;23.350;2023-04-10T00:25:16;94893.88;;;8.56;100.00
23164;BME280;31429;42.674;23.350;2023-04-10T00:26:17;94890.53;;;9.11;100.00
23164;BME280;31429;42.674;23.350;2023-04-10T00:27:19;94891.47;;;9.09;100.00
23164;BME280;31429;42.674;23.350;2023-04-10T00:28:20;94887.56;;;8.97;100.00
23164;BME280;31429;42.674;23.350;2023-04-10T00:29:20;94895.59;;;8.85;100.00
23164;BME280;31429;42.674;23.350;2023-04-10T00:30:21;94893.63;;;8.64;100.00
23164;BME280;31429;42.674;23.350;2023-04-10T00:31:22;94888.63;;;8.61;100.00
23164;BME280;31429;42.674;23.350;2023-04-10T00:32:23;94891.31;;;8.86;100.00
23164;BME280;31429;42.674;23.350;2023-04-10T00:33:23;94890.56;;;8.53;100.00
23164;BME280;31429;42.674;23.350;2023-04-10T00:34:24;94891.69;;;8.74;100.00
23164;BME280;31429;42.674;23.350;2023-04-10T00:35:25;94893.09;;;8.53;100.00
23164;BME280;31429;42.674;23.350;2023-04-10T00:36:26;94889.94;;;8.45;100.00
23164;BME280;31429;42.674;23.350;2023-04-10T00:37:27;94891.88;;;8.95;100.00
23164;BME280;31429;42.674;23.350;2023-04-10T00:38:28;94884.81;;;9.59;100.00
23164;BME280;31429;42.674;23.350;2023-04-10T00:39:28;94886.06;;;9.46;100.00
23164;BME280;31429;42.674;23.350;2023-04-10T00:40:29;94887.69;;;9.48;100.00
23164;BME280;31429;42.674;23.350;2023-04-10T00:41:29;94889.53;;;9.45;100.00
23164;BME280;31429;42.674;23.350;2023-04-10T00:42:31;94887.72;;;9.20;100.00
23164;BME280;31429;42.674;23.350;2023-04-10T00:43:32;94882.00;;;9.40;100.00
23164;BME280;31429;42.674;23.350;2023-04-10T00:44:33;94895.53;;;8.87;100.00
23164;BME280;31429;42.674;23.350;2023-04-10T00:45:36;94886.00;;;8.93;100.00
23164;BME280;31429;42.674;23.350;2023-04-10T00:46:38;94887.03;;;8.86;99.84
23164;BME280;31429;42.674;23.350;2023-04-10T00:47:39;94890.75;;;8.76;98.87
23164;BME280;31429;42.674;23.350;2023-04-10T00:48:40;94889.81;;;8.79;100.00
23164;BME280;31429;42.674;23.350;2023-04-10T00:49:42;94888.16;;;8.78;100.00
23164;BME280;31429;42.674;23.350;2023-04-10T00:50:44;94891.84;;;8.68;100.00
23164;BME280;31429;42.674;23.350;2023-04-10T00:51:46;94888.59;;;8.62;100.00
23164;BME280;31429;42.674;23.350;2023-04-10T00:52:48;94887.16;;;8.54;100.00
23164;BME280;31429;42.674;23.350;2023-04-10T00:53:49;94887.69;;;8.65;100.00
23164;BME280;31429;42.674;23.350;2023-04-10T00:54:50;94886.31;;;8.52;100.00
23164;BME280;31429;42.674;23.350;2023-04-10T00:55:52;94881.59;;;8.40;100.00
23164;BME280;31429;42.674;23.350;2023-04-10T00:56:54;94877.53;;;8.33;100.00
23164;BME280;31429;42.674;23.350;2023-04-10T00:57:57;94882.88;;;8.22;100.00
23164;BME280;31429;42.674;23.350;2023-04-10T00:58:58;94884.75;;;8.16;100.00
23164;BME280;31429;42.674;23.350;2023-04-10T00:59:59;94883.97;;;8.14;100.00
23164;BME280;31429;42.674;23.350;2023-04-10T01:01:00;94881.25;;;8.20;100.00
23164;BME280;31429;42.674;23.350;2023-04-10T01:02:03;94882.97;;;8.19;100.00
23164;BME280;31429;42.674;23.350;2023-04-10T01:03:04;94880.34;;;8.22;100.00
23164;BME280;31429;42.674;23.350;2023-04-10T01:04:05;94874.72;;;8.09;100.00
23164;BME280;31429;42.674;23.350;2023-04-10T01:05:08;94878.94;;;8.10;100.00
23164;BME280;31429;42.674;23.350;2023-04-10T01:06:17;94871.22;;;8.14;100.00
23164;BME280;31429;42.674;23.350;2023-04-10T01:07:29;94863.00;;;8.36;100.00
23164;BME280;31429;42.674;23.350;2023-04-10T01:08:40;94873.84;;;8.10;100.00
23164;BME280;31429;42.674;23.350;2023-04-10T01:09:46;94862.69;;;8.15;100.00
23164;BME280;31429;42.674;23.350;2023-04-10T01:10:53;94865.44;;;8.08;100.00
23164;BME280;31429;42.674;23.350;2023-04-10T01:12:05;94855.66;;;8.24;100.00
23164;BME280;31429;42.674;23.350;2023-04-10T01:13:15;94858.69;;;8.06;100.00
23164;BME280;31429;42.674;23.350;2023-04-10T01:14:25;94863.50;;;8.17;100.00
23164;BME280;31429;42.674;23.350;2023-04-10T01:15:27;94867.31;;;8.00;100.00
23164;BME280;31429;42.674;23.350;2023-04-10T01:16:35;94861.50;;;7.97;100.00
23164;BME280;31429;42.674;23.350;2023-04-10T01:17:41;94869.31;;;7.89;100.00
23164;BME280;31429;42.674;23.350;2023-04-10T01:18:46;94863.19;;;7.96;100.00
23164;BME280;31429;42.674;23.350;2023-04-10T01:19:57;94863.84;;;8.04;100.00
23164;BME280;31429;42.674;23.350;2023-04-10T01:21:02;94864.88;;;7.97;100.00
23164;BME280;31429;42.674;23.350;2023-04-10T01:22:05;94865.78;;;7.95;100.00
23164;BME280;31429;42.674;23.350;2023-04-10T01:23:39;94865.91;;;7.90;100.00
23164;BME280;31429;42.674;23.350;2023-04-10T01:24:51;94860.72;;;7.93;100.00
23164;BME280;31429;42.674;23.350;2023-04-10T01:25:58;94868.28;;;7.96;100.00
23164;BME280;31429;42.674;23.350;2023-04-10T01:27:11;94864.97;;;7.93;100.00
23164;BME280;31429;42.674;23.350;2023-04-10T01:28:56;94858.41;;;7.84;100.00
23164;BME280;31429;42.674;23.350;2023-04-10T01:30:00;94860.25;;;7.79;100.00
23164;BME280;31429;42.674;23.350;2023-04-10T01:31:02;94851.69;;;7.82;100.00
23164;BME280;31429;42.674;23.350;2023-04-10T01:32:10;94856.91;;;7.77;100.00
23164;BME280;31429;42.674;23.350;2023-04-10T01:33:15;94857.94;;;7.70;100.00
23164;BME280;31429;42.674;23.350;2023-04-10T01:34:20;94854.44;;;7.74;100.00
23164;BME280;31429;42.674;23.350;2023-04-10T01:35:21;94850.78;;;7.84;100.00
23164;BME280;31429;42.674;23.350;2023-04-10T01:36:26;94854.44;;;7.74;100.00
23164;BME280;31429;42.674;23.350;2023-04-10T01:37:30;94855.31;;;7.73;100.00
23164;BME280;31429;42.674;23.350;2023-04-10T01:38:35;94851.09;;;7.72;100.00
23164;BME280;31429;42.674;23.350;2023-04-10T01:39:40;94843.31;;;7.78;100.00
23164;BME280;31429;42.674;23.350;2023-04-10T01:40:43;94859.38;;;7.80;100.00
23164;BME280;31429;42.674;23.350;2023-04-10T01:41:51;94851.50;;;7.89;100.00
23164;BME280;31429;42.674;23.350;2023-04-10T01:42:54;94853.19;;;7.90;100.00
23164;BME280;31429;42.674;23.350;2023-04-10T01:43:57;94861.44;;;7.98;100.00
23164;BME280;31429;42.674;23.350;2023-04-10T01:44:59;94854.78;;;7.94;100.00
23164;BME280;31429;42.674;23.350;2023-04-10T01:46:02;94859.69;;;8.00;100.00
23164;BME280;31429;42.674;23.350;2023-04-10T01:47:05;94865.84;;;7.92;100.00
23164;BME280;31429;42.674;23.350;2023-04-10T01:48:06;94855.84;;;7.86;100.00
23164;BME280;31429;42.674;23.350;2023-04-10T01:49:07;94860.13;;;7.84;100.00
23164;BME280;31429;42.674;23.350;2023-04-10T01:50:09;94860.75;;;7.92;100.00
23164;BME280;31429;42.674;23.350;2023-04-10T01:51:12;94857.56;;;7.85;100.00
23164;BME280;31429;42.674;23.350;2023-04-10T01:52:15;94859.25;;;7.85;100.00
23164;BME280;31429;42.674;23.350;2023-04-10T01:53:17;94857.72;;;7.78;100.00
23164;BME280;31429;42.674;23.350;2023-04-10T01:54:18;94862.72;;;7.82;100.00
23164;BME280;31429;42.674;23.350;2023-04-10T01:55:19;94859.22;;;7.86;100.00
23164;BME280;31429;42.674;23.350;2023-04-10T01:56:20;94854.84;;;7.91;100.00
23164;BME280;31429;42.674;23.350;2023-04-10T01:57:21;94860.72;;;7.93;100.00
23164;BME280;31429;42.674;23.350;2023-04-10T01:58:22;94866.75;;;7.89;100.00
23164;BME280;31429;42.674;23.350;2023-04-10T01:59:24;94863.41;;;7.89;100.00
23164;BME280;31429;42.674;23.350;2023-04-10T02:00:25;94866.91;;;7.85;100.00
23164;BME280;31429;42.674;23.350;2023-04-10T02:01:26;94861.19;;;7.75;100.00
23164;BME280;31429;42.674;23.350;2023-04-10T02:02:29;94863.66;;;7.78;100.00
23164;BME280;31429;42.674;23.350;2023-04-10T02:03:30;94866.03;;;7.86;100.00
23164;BME280;31429;42.674;23.350;2023-04-10T02:04:31;94859.19;;;7.88;100.00
23164;BME280;31429;42.674;23.350;2023-04-10T02:05:38;94864.28;;;7.88;100.00
23164;BME280;31429;42.674;23.350;2023-04-10T02:06:45;94857.63;;;7.82;100.00
23164;BME280;31429;42.674;23.350;2023-04-10T02:07:53;94856.63;;;7.88;100.00
23164;BME280;31429;42.674;23.350;2023-04-10T02:09:03;94856.50;;;7.92;100.00
23164;BME280;31429;42.674;23.350;2023-04-10T02:10:12;94861.97;;;7.79;100.00
23164;BME280;31429;42.674;23.350;2023-04-10T02:11:24;94855.09;;;7.82;100.00
23164;BME280;31429;42.674;23.350;2023-04-10T02:12:30;94852.63;;;7.79;100.00
23164;BME280;31429;42.674;23.350;2023-04-10T02:13:33;94854.25;;;7.82;100.00
23164;BME280;31429;42.674;23.350;2023-04-10T02:14:42;94848.00;;;7.93;100.00
23164;BME280;31429;42.674;23.350;2023-04-10T02:15:45;94844.41;;;8.00;100.00
23164;BME280;31429;42.674;23.350;2023-04-10T02:16:48;94843.53;;;8.03;100.00
23164;BME280;31429;42.674;23.350;2023-04-10T02:17:50;94840.84;;;8.07;100.00
23164;BME280;31429;42.674;23.350;2023-04-10T02:18:52;94840.88;;;8.06;100.00
23164;BME280;31429;42.674;23.350;2023-04-10T02:19:53;94844.41;;;8.00;100.00
23164;BME280;31429;42.674;23.350;2023-04-10T02:20:55;94835.81;;;8.04;100.00
23164;BME280;31429;42.674;23.350;2023-04-10T02:21:56;94838.38;;;8.04;100.00
23164;BME280;31429;42.674;23.350;2023-04-10T02:22:58;94840.13;;;8.02;100.00
23164;BME280;31429;42.674;23.350;2023-04-10T02:24:02;94836.00;;;7.98;100.00
23164;BME280;31429;42.674;23.350;2023-04-10T02:25:04;94836.13;;;7.94;100.00
23164;BME280;31429;42.674;23.350;2023-04-10T02:26:06;94829.66;;;7.81;100.00
23164;BME280;31429;42.674;23.350;2023-04-10T02:27:07;94828.03;;;7.78;100.00
23164;BME280;31429;42.674;23.350;2023-04-10T02:28:08;94827.88;;;7.84;100.00
23164;BME280;31429;42.674;23.350;2023-04-10T02:29:08;94832.09;;;7.85;100.00
23164;BME280;31429;42.674;23.350;2023-04-10T02:30:11;94830.66;;;7.75;100.00
23164;BME280;31429;42.674;23.350;2023-04-10T02:31:11;94827.56;;;7.64;100.00
23164;BME280;31429;42.674;23.350;2023-04-10T02:32:12;94828.25;;;7.71;100.00
23164;BME280;31429;42.674;23.350;2023-04-10T02:33:13;94825.66;;;7.72;100.00
23164;BME280;31429;42.674;23.350;2023-04-10T02:34:13;94829.94;;;7.70;100.00
23164;BME280;31429;42.674;23.350;2023-04-10T02:35:14;94829.16;;;7.68;100.00
23164;BME280;31429;42.674;23.350;2023-04-10T02:36:14;94826.78;;;7.62;100.00
23164;BME280;31429;42.674;23.350;2023-04-10T02:37:15;94830.91;;;7.66;100.00
23164;BME280;31429;42.674;23.350;2023-04-10T02:38:16;94827.53;;;7.66;100.00
23164;BME280;31429;42.674;23.350;2023-04-10T02:39:16;94819.06;;;7.65;100.00
23164;BME280;31429;42.674;23.350;2023-04-10T02:40:17;94819.91;;;7.66;100.00
23164;BME280;31429;42.674;23.350;2023-04-10T02:41:18;94824.09;;;7.67;100.00
23164;BME280;31429;42.674;23.350;2023-04-10T02:42:18;94821.75;;;7.59;100.00
23164;BME280;31429;42.674;23.350;2023-04-10T02:43:19;94818.66;;;7.48;100.00
23164;BME280;31429;42.674;23.350;2023-04-10T02:44:19;94822.94;;;7.46;100.00
23164;BME280;31429;42.674;23.350;2023-04-10T02:45:22;94815.53;;;7.37;100.00
23164;BME280;31429;42.674;23.350;2023-04-10T02:46:22;94814.56;;;7.42;100.00
23164;BME280;31429;42.674;23.350;2023-04-10T02:47:24;94818.00;;;7.40;100.00
23164;BME280;31429;42.674;23.350;2023-04-10T02:48:24;94819.00;;;7.33;100.00
23164;BME280;31429;42.674;23.350;2023-04-10T02:49:25;94814.84;;;7.30;100.00
23164;BME280;31429;42.674;23.350;2023-04-10T02:50:26;94807.28;;;7.27;100.00
23164;BME280;31429;42.674;23.350;2023-04-10T02:51:29;94810.63;;;7.29;100.00
23164;BME280;31429;42.674;23.350;2023-04-10T02:52:30;94816.66;;;7.25;100.00
23164;BME280;31429;42.674;23.350;2023-04-10T02:53:31;94803.88;;;7.28;100.00
23164;BME280;31429;42.674;23.350;2023-04-10T02:54:32;94809.81;;;7.27;100.00
23164;BME280;31429;42.674;23.350;2023-04-10T02:55:33;94809.75;;;7.30;100.00
23164;BME280;31429;42.674;23.350;2023-04-10T02:56:33;94812.00;;;7.42;100.00
23164;BME280;31429;42.674;23.350;2023-04-10T02:57:34;94805.69;;;7.57;100.00
23164;BME280;31429;42.674;23.350;2023-04-10T02:58:35;94801.41;;;7.59;100.00
23164;BME280;31429;42.674;23.350;2023-04-10T02:59:36;94800.53;;;7.60;100.00
23164;BME280;31429;42.674;23.350;2023-04-10T03:00:38;94803.34;;;7.49;100.00
23164;BME280;31429;42.674;23.350;2023-04-10T03:01:39;94807.50;;;7.52;100.00
23164;BME280;31429;42.674;23.350;2023-04-10T03:02:39;94808.31;;;7.54;100.00
23164;BME280;31429;42.674;23.350;2023-04-10T03:03:40;94802.34;;;7.55;100.00
23164;BME280;31429;42.674;23.350;2023-04-10T03:04:41;94801.31;;;7.62;100.00
23164;BME280;31429;42.674;23.350;2023-04-10T03:05:42;94801.41;;;7.59;100.00
23164;BME280;31429;42.674;23.350;2023-04-10T03:06:42;94803.25;;;7.52;100.00
23164;BME280;31429;42.674;23.350;2023-04-10T03:07:43;94799.25;;;7.44;100.00
23164;BME280;31429;42.674;23.350;2023-04-10T03:08:44;94802.03;;;7.35;100.00
23164;BME280;31429;42.674;23.350;2023-04-10T03:09:44;94807.19;;;7.32;100.00
23164;BME280;31429;42.674;23.350;2023-04-10T03:10:46;94802.84;;;7.35;100.00
23164;BME280;31429;42.674;23.350;2023-04-10T03:11:49;94797.69;;;7.38;100.00
23164;BME280;31429;42.674;23.350;2023-04-10T03:12:50;94807.84;;;7.40;100.00
23164;BME280;31429;42.674;23.350;2023-04-10T03:13:50;94800.31;;;7.35;100.00
23164;BME280;31429;42.674;23.350;2023-04-10T03:14:51;94807.19;;;7.32;100.00
23164;BME280;31429;42.674;23.350;2023-04-10T03:15:53;94806.31;;;7.33;100.00
23164;BME280;31429;42.674;23.350;2023-04-10T03:16:54;94803.03;;;7.28;100.00
23164;BME280;31429;42.674;23.350;2023-04-10T03:17:54;94805.72;;;7.23;100.00
23164;BME280;31429;42.674;23.350;2023-04-10T03:20:15;94807.84;;;7.05;100.00
23164;BME280;31429;42.674;23.350;2023-04-10T03:21:15;94812.41;;;6.90;100.00
23164;BME280;31429;42.674;23.350;2023-04-10T03:22:16;94803.41;;;6.77;100.00
23164;BME280;31429;42.674;23.350;2023-04-10T03:23:16;94806.00;;;6.74;100.00
23164;BME280;31429;42.674;23.350;2023-04-10T03:24:17;94813.56;;;6.77;100.00
23164;BME280;31429;42.674;23.350;2023-04-10T03:25:18;94809.97;;;6.86;100.00
23164;BME280;31429;42.674;23.350;2023-04-10T03:26:18;94810.78;;;6.88;100.00
23164;BME280;31429;42.674;23.350;2023-04-10T03:27:19;94809.13;;;6.85;100.00
23164;BME280;31429;42.674;23.350;2023-04-10T03:28:20;94807.44;;;6.84;100.00
23164;BME280;31429;42.674;23.350;2023-04-10T03:29:20;94810.34;;;6.69;100.00
23164;BME280;31429;42.674;23.350;2023-04-10T03:30:21;94808.00;;;6.60;100.00
23164;BME280;31429;42.674;23.350;2023-04-10T03:31:24;94813.16;;;6.57;100.00
23164;BME280;31429;42.674;23.350;2023-04-10T03:32:25;94811.28;;;6.65;100.00
23164;BME280;31429;42.674;23.350;2023-04-10T03:33:27;94814.47;;;6.75;100.00
23164;BME280;31429;42.674;23.350;2023-04-10T03:34:28;94815.25;;;6.77;100.00
23164;BME280;31429;42.674;23.350;2023-04-10T03:35:28;94807.88;;;6.66;100.00
23164;BME280;31429;42.674;23.350;2023-04-10T03:36:29;94818.25;;;6.57;100.00
23164;BME280;31429;42.674;23.350;2023-04-10T03:37:30;94812.56;;;6.46;100.00
23164;BME280;31429;42.674;23.350;2023-04-10T03:38:31;94815.09;;;6.46;100.00
23164;BME280;31429;42.674;23.350;2023-04-10T03:39:31;94812.44;;;6.51;100.00
23164;BME280;31429;42.674;23.350;2023-04-10T03:40:32;94810.00;;;6.46;100.00
23164;BME280;31429;42.674;23.350;2023-04-10T03:41:33;94820.22;;;6.43;100.00
23164;BME280;31429;42.674;23.350;2023-04-10T03:42:34;94814.63;;;6.27;100.00
23164;BME280;31429;42.674;23.350;2023-04-10T03:43:35;94818.97;;;6.22;100.00
23164;BME280;31429;42.674;23.350;2023-04-10T03:44:35;94819.81;;;6.23;100.00
23164;BME280;31429;42.674;23.350;2023-04-10T03:45:37;94823.25;;;6.20;100.00
23164;BME280;31429;42.674;23.350;2023-04-10T03:46:39;94822.41;;;6.20;100.00
23164;BME280;31429;42.674;23.350;2023-04-10T03:47:39;94822.47;;;6.17;100.00
23164;BME280;31429;42.674;23.350;2023-04-10T03:48:40;94826.63;;;6.19;100.00
23164;BME280;31429;42.674;23.350;2023-04-10T03:49:41;94826.63;;;6.19;100.00
23164;BME280;31429;42.674;23.350;2023-04-10T03:50:41;94820.69;;;6.20;100.00
23164;BME280;31429;42.674;23.350;2023-04-10T03:51:42;94819.75;;;6.24;100.00
23164;BME280;31429;42.674;23.350;2023-04-10T03:52:43;94823.06;;;6.28;100.00
23164;BME280;31429;42.674;23.350;2023-04-10T03:53:44;94820.59;;;6.25;100.00
23164;BME280;31429;42.674;23.350;2023-04-10T03:54:44;94824.13;;;6.18;100.00
23164;BME280;31429;42.674;23.350;2023-04-10T03:55:45;94825.91;;;6.14;100.00
23164;BME280;31429;42.674;23.350;2023-04-10T03:56:46;94827.59;;;6.14;100.00
23164;BME280;31429;42.674;23.350;2023-04-10T03:57:46;94831.13;;;6.07;100.00
23164;BME280;31429;42.674;23.350;2023-04-10T03:58:47;94824.19;;;6.15;100.00
23164;BME280;31429;42.674;23.350;2023-04-10T03:59:48;94828.38;;;6.16;100.00
23164;BME280;31429;42.674;23.350;2023-04-10T04:00:49;94828.47;;;6.13;100.00
23164;BME280;31429;42.674;23.350;2023-04-10T04:01:51;94835.25;;;6.11;100.00
23164;BME280;31429;42.674;23.350;2023-04-10T04:02:52;94830.19;;;6.12;100.00
23164;BME280;31429;42.674;23.350;2023-04-10T04:03:53;94835.22;;;6.14;100.00
23164;BME280;31429;42.674;23.350;2023-04-10T04:04:55;94835.19;;;6.15;100.00
23164;BME280;31429;42.674;23.350;2023-04-10T04:05:56;94834.19;;;6.22;100.00
23164;BME280;31429;42.674;23.350;2023-04-10T04:06:57;94834.19;;;6.24;100.00
23164;BME280;31429;42.674;23.350;2023-04-10T04:07:57;94826.34;;;6.34;100.00
23164;BME280;31429;42.674;23.350;2023-04-10T04:08:58;94826.44;;;6.30;100.00
23164;BME280;31429;42.674;23.350;2023-04-10T04:09:59;94837.41;;;6.32;100.00
23164;BME280;31429;42.674;23.350;2023-04-10T04:11:00;94838.31;;;6.28;100.00
23164;BME280;31429;42.674;23.350;2023-04-10T04:12:00;94835.72;;;6.31;100.00
23164;BME280;31429;42.674;23.350;2023-04-10T04:13:01;94833.91;;;6.36;100.00
23164;BME280;31429;42.674;23.350;2023-04-10T04:14:01;94833.84;;;6.39;100.00
23164;BME280;31429;42.674;23.350;2023-04-10T04:15:03;94834.53;;;6.47;100.00
23164;BME280;31429;42.674;23.350;2023-04-10T04:16:04;94836.06;;;6.54;100.00
23164;BME280;31429;42.674;23.350;2023-04-10T04:17:06;94839.53;;;6.50;100.00
23164;BME280;31429;42.674;23.350;2023-04-10T04:18:08;94830.25;;;6.49;100.00
23164;BME280;31429;42.674;23.350;2023-04-10T04:19:08;94836.13;;;6.51;100.00
23164;BME280;31429;42.674;23.350;2023-04-10T04:20:10;94833.38;;;6.62;100.00
23164;BME280;31429;42.674;23.350;2023-04-10T04:21:10;94835.75;;;6.69;100.00
23164;BME280;31429;42.674;23.350;2023-04-10T04:22:11;94831.50;;;6.70;100.00
23164;BME280;31429;42.674;23.350;2023-04-10T04:23:12;94832.56;;;6.60;100.00
23164;BME280;31429;42.674;23.350;2023-04-10T04:24:13;94826.53;;;6.65;100.00
23164;BME280;31429;42.674;23.350;2023-04-10T04:25:13;94832.03;;;6.84;100.00
23164;BME280;31429;42.674;23.350;2023-04-10T04:26:14;94835.31;;;6.89;100.00
23164;BME280;31429;42.674;23.350;2023-04-10T04:27:15;94829.34;;;6.91;100.00
23164;BME280;31429;42.674;23.350;2023-04-10T04:28:15;94833.63;;;6.88;100.00
23164;BME280;31429;42.674;23.350;2023-04-10T04:29:16;94835.13;;;6.97;100.00
23164;BME280;31429;42.674;23.350;2023-04-10T04:30:17;94833.31;;;7.02;100.00
23164;BME280;31429;42.674;23.350;2023-04-10T04:31:18;94836.75;;;7.01;100.00
23164;BME280;31429;42.674;23.350;2023-04-10T04:32:20;94837.47;;;7.06;100.00
23164;BME280;31429;42.674;23.350;2023-04-10T04:33:20;94833.97;;;7.10;100.00
23164;BME280;31429;42.674;23.350;2023-04-10T04:34:21;94833.75;;;7.19;100.00
23164;BME280;31429;42.674;23.350;2023-04-10T04:35:22;94836.69;;;7.04;100.00
23164;BME280;31429;42.674;23.350;2023-04-10T04:36:22;94838.97;;;7.14;100.00
23164;BME280;31429;42.674;23.350;2023-04-10T04:37:23;94839.88;;;7.12;100.00
23164;BME280;31429;42.674;23.350;2023-04-10T04:38:24;94846.53;;;7.17;100.00
23164;BME280;31429;42.674;23.350;2023-04-10T04:39:25;94840.81;;;7.08;100.00
23164;BME280;31429;42.674;23.350;2023-04-10T04:40:25;94841.53;;;7.13;100.00
23164;BME280;31429;42.674;23.350;2023-04-10T04:41:26;94847.47;;;7.13;100.00
23164;BME280;31429;42.674;23.350;2023-04-10T04:42:27;94837.41;;;7.09;100.00
23164;BME280;31429;42.674;23.350;2023-04-10T04:43:27;94846.53;;;7.16;100.00
23164;BME280;31429;42.674;23.350;2023-04-10T04:44:28;94849.13;;;7.14;100.00
23164;BME280;31429;42.674;23.350;2023-04-10T04:45:28;94844.91;;;7.13;100.00
23164;BME280;31429;42.674;23.350;2023-04-10T04:46:30;94845.16;;;7.03;100.00
23164;BME280;31429;42.674;23.350;2023-04-10T04:47:32;94846.72;;;7.08;100.00
23164;BME280;31429;42.674;23.350;2023-04-10T04:48:34;94841.44;;;7.17;100.00
23164;BME280;31429;42.674;23.350;2023-04-10T04:49:34;94848.03;;;7.24;100.00
23164;BME280;31429;42.674;23.350;2023-04-10T04:50:35;94845.69;;;7.17;100.00
23164;BME280;31429;42.674;23.350;2023-04-10T04:51:36;94849.09;;;7.16;100.00
23164;BME280;31429;42.674;23.350;2023-04-10T04:52:37;94841.25;;;7.25;100.00
23164;BME280;31429;42.674;23.350;2023-04-10T04:53:38;94847.63;;;7.41;100.00
23164;BME280;31429;42.674;23.350;2023-04-10T04:54:38;94846.91;;;7.37;100.00
23164;BME280;31429;42.674;23.350;2023-04-10T04:55:39;94848.47;;;7.41;100.00
23164;BME280;31429;42.674;23.350;2023-04-10T04:56:40;94855.34;;;7.38;100.00
23164;BME280;31429;42.674;23.350;2023-04-10T04:57:41;94853.63;;;7.38;100.00
23164;BME280;31429;42.674;23.350;2023-04-10T04:58:41;94851.00;;;7.41;100.00
23164;BME280;31429;42.674;23.350;2023-04-10T04:59:42;94860.28;;;7.44;100.00
23164;BME280;31429;42.674;23.350;2023-04-10T05:00:43;94857.81;;;7.41;100.00
23164;BME280;31429;42.674;23.350;2023-04-10T05:01:43;94856.81;;;7.48;100.00
23164;BME280;31429;42.674;23.350;2023-04-10T05:02:46;94856.00;;;7.46;100.00
23164;BME280;31429;42.674;23.350;2023-04-10T05:03:46;94863.56;;;7.49;100.00
23164;BME280;31429;42.674;23.350;2023-04-10T05:04:47;94856.72;;;7.51;100.00
23164;BME280;31429;42.674;23.350;2023-04-10T05:05:47;94863.16;;;7.66;100.00
23164;BME280;31429;42.674;23.350;2023-04-10T05:06:48;94859.84;;;7.62;100.00
23164;BME280;31429;42.674;23.350;2023-04-10T05:07:49;94863.22;;;7.63;100.00
23164;BME280;31429;42.674;23.350;2023-04-10T05:08:49;94870.03;;;7.61;100.00
23164;BME280;31429;42.674;23.350;2023-04-10T05:09:52;94861.44;;;7.66;100.00
23164;BME280;31429;42.674;23.350;2023-04-10T05:10:53;94863.88;;;7.71;100.00
23164;BME280;31429;42.674;23.350;2023-04-10T05:11:53;94862.94;;;7.75;100.00
23164;BME280;31429;42.674;23.350;2023-04-10T05:12:55;94866.19;;;7.80;100.00
23164;BME280;31429;42.674;23.350;2023-04-10T05:13:55;94863.06;;;7.69;100.00
23164;BME280;31429;42.674;23.350;2023-04-10T05:14:56;94863.06;;;7.69;100.00
23164;BME280;31429;42.674;23.350;2023-04-10T05:15:56;94869.81;;;7.70;100.00
23164;BME280;31429;42.674;23.350;2023-04-10T05:16:57;94863.78;;;7.74;100.00
23164;BME280;31429;42.674;23.350;2023-04-10T05:17:59;94862.81;;;7.78;100.00
23164;BME280;31429;42.674;23.350;2023-04-10T05:19:00;94858.50;;;7.81;100.00
23164;BME280;31429;42.674;23.350;2023-04-10T05:20:00;94868.56;;;7.86;100.00
23164;BME280;31429;42.674;23.350;2023-04-10T05:21:01;94858.81;;;8.01;100.00
23164;BME280;31429;42.674;23.350;2023-04-10T05:22:02;94865.50;;;8.05;100.00
23164;BME280;31429;42.674;23.350;2023-04-10T05:23:02;94859.53;;;8.06;100.00
23164;BME280;31429;42.674;23.350;2023-04-10T05:24:03;94862.91;;;8.07;100.00
23164;BME280;31429;42.674;23.350;2023-04-10T05:25:05;94860.97;;;8.17;100.00
23164;BME280;31429;42.674;23.350;2023-04-10T05:26:06;94869.72;;;8.06;100.00